Time,TemperatureF,DewpointF,PressureIn,WindDirection,WindDirectionDegrees,WindSpeedMPH,WindSpeedGustMPH,Humidity,HourlyPrecipIn,Conditions,Clouds,dailyrainin,SoftwareType,DateUTC
2013-11-16 00:03:00,44.8,40.6,29.35,East,90,2.2,3.8,85,0.00,,,0.37,pywws,2013-11-16 08:03:00,
2013-11-16 00:08:00,44.6,40.4,29.35,East,90,1.6,3.1,85,0.00,,,0.00,pywws,2013-11-16 08:08:00,
2013-11-16 00:13:00,44.4,40.5,29.35,East,90,1.6,2.2,86,0.00,,,0.00,pywws,2013-11-16 08:13:00,
2013-11-16 00:18:00,44.4,40.8,29.35,East,90,2.2,3.1,87,0.00,,,0.00,pywws,2013-11-16 08:18:00,
2013-11-16 00:23:00,44.2,40.3,29.35,East,90,1.6,2.2,86,0.00,,,0.00,pywws,2013-11-16 08:23:00,
2013-11-16 00:28:00,44.2,40.3,29.35,East,90,2.2,3.1,86,0.00,,,0.00,pywws,2013-11-16 08:28:00,
2013-11-16 00:33:00,44.2,40.3,29.35,East,90,1.6,3.1,86,0.00,,,0.00,pywws,2013-11-16 08:33:00,
2013-11-16 00:38:00,44.1,40.1,29.36,East,90,1.6,3.1,86,0.00,,,0.00,pywws,2013-11-16 08:38:00,
2013-11-16 00:43:00,43.9,40.0,29.35,North,-999,0.0,0.0,86,0.00,,,0.00,pywws,2013-11-16 08:43:00,
2013-11-16 00:48:00,43.9,40.3,29.35,East,90,1.6,2.2,87,0.00,,,0.00,pywws,2013-11-16 08:48:00,
2013-11-16 01:03:00,43.9,40.3,29.36,East,90,1.6,2.2,87,0.00,,,0.00,pywws,2013-11-16 09:03:00,
2013-11-16 01:08:00,43.9,40.0,29.37,East,90,1.6,2.2,86,0.00,,,0.00,pywws,2013-11-16 09:08:00,
2013-11-16 01:13:00,43.2,39.0,29.37,North,-999,0.0,0.7,85,0.00,,,0.00,pywws,2013-11-16 09:13:00,
2013-11-16 01:18:00,42.8,38.3,29.36,North,-999,0.0,0.0,84,0.00,,,0.00,pywws,2013-11-16 09:18:00,
2013-11-16 01:23:00,42.8,38.3,29.37,North,-999,0.0,0.0,84,0.00,,,0.00,pywws,2013-11-16 09:23:00,
2013-11-16 01:28:00,42.8,38.6,29.37,North,-999,0.0,0.0,85,0.00,,,0.00,pywws,2013-11-16 09:28:00,
2013-11-16 01:33:00,42.6,38.7,29.38,East,90,0.7,2.2,86,0.00,,,0.00,pywws,2013-11-16 09:33:00,
2013-11-16 01:38:00,42.3,38.4,29.39,North,-999,0.0,0.0,86,0.01,,,0.01,pywws,2013-11-16 09:38:00,
2013-11-16 01:43:00,42.1,38.2,29.39,North,-999,0.0,0.0,86,0.01,,,0.01,pywws,2013-11-16 09:43:00,
2013-11-16 01:48:00,41.9,38.0,29.39,North,-999,0.0,0.0,86,0.01,,,0.01,pywws,2013-11-16 09:48:00,
2013-11-16 02:03:00,41.9,38.0,29.38,North,-999,0.0,0.0,86,0.01,,,0.01,pywws,2013-11-16 10:03:00,
2013-11-16 02:08:00,41.4,38.1,29.39,East,90,0.7,2.2,88,0.01,,,0.01,pywws,2013-11-16 10:08:00,
2013-11-16 02:13:00,41.2,37.9,29.40,East,90,0.7,1.6,88,0.01,,,0.01,pywws,2013-11-16 10:13:00,
2013-11-16 02:18:00,41.2,37.9,29.40,North,-999,0.0,0.0,88,0.01,,,0.01,pywws,2013-11-16 10:18:00,
2013-11-16 02:23:00,41.2,37.9,29.40,North,-999,0.0,0.0,88,0.02,,,0.02,pywws,2013-11-16 10:23:00,
2013-11-16 02:28:00,41.2,37.9,29.39,North,-999,0.0,0.0,88,0.02,,,0.02,pywws,2013-11-16 10:28:00,
2013-11-16 02:33:00,41.0,37.7,29.40,North,-999,0.0,0.0,88,0.02,,,0.02,pywws,2013-11-16 10:33:00,
2013-11-16 02:38:00,40.8,37.8,29.40,North,-999,0.0,0.0,89,0.01,,,0.02,pywws,2013-11-16 10:38:00,
2013-11-16 02:43:00,40.6,37.7,29.40,North,-999,0.0,0.0,89,0.01,,,0.02,pywws,2013-11-16 10:43:00,
2013-11-16 02:48:00,40.5,37.5,29.40,North,-999,0.0,0.0,89,0.01,,,0.02,pywws,2013-11-16 10:48:00,
2013-11-16 03:03:00,40.5,37.5,29.41,North,-999,0.0,0.0,89,0.01,,,0.02,pywws,2013-11-16 11:03:00,
2013-11-16 03:08:00,40.6,37.9,29.40,North,-999,0.0,0.0,90,0.01,,,0.02,pywws,2013-11-16 11:08:00,
2013-11-16 03:13:00,40.5,37.8,29.40,North,-999,0.0,0.0,90,0.01,,,0.02,pywws,2013-11-16 11:13:00,
2013-11-16 03:18:00,40.3,37.6,29.40,North,-999,0.0,0.0,90,0.01,,,0.02,pywws,2013-11-16 11:18:00,
2013-11-16 03:23:00,40.5,37.8,29.40,East,90,0.7,3.1,90,0.00,,,0.02,pywws,2013-11-16 11:23:00,
2013-11-16 03:28:00,41.2,38.5,29.39,East,90,0.7,1.6,90,0.00,,,0.02,pywws,2013-11-16 11:28:00,
2013-11-16 03:33:00,41.4,38.7,29.40,East,90,0.7,2.2,90,0.00,,,0.02,pywws,2013-11-16 11:33:00,
2013-11-16 03:38:00,41.0,38.3,29.41,East,90,1.6,2.2,90,0.00,,,0.02,pywws,2013-11-16 11:38:00,
2013-11-16 03:43:00,41.2,38.5,29.41,North,-999,0.0,0.0,90,0.00,,,0.02,pywws,2013-11-16 11:43:00,
2013-11-16 03:48:00,41.2,38.5,29.41,North,-999,0.0,0.0,90,0.00,,,0.02,pywws,2013-11-16 11:48:00,
2013-11-16 04:03:00,41.5,38.8,29.41,North,-999,0.0,0.0,90,0.00,,,0.02,pywws,2013-11-16 12:03:00,
2013-11-16 04:08:00,41.5,39.1,29.42,North,-999,0.0,0.0,91,0.00,,,0.02,pywws,2013-11-16 12:08:00,
2013-11-16 04:13:00,41.5,39.1,29.42,North,-999,0.0,0.0,91,0.00,,,0.02,pywws,2013-11-16 12:13:00,
2013-11-16 04:18:00,41.5,39.1,29.43,North,-999,0.0,0.0,91,0.00,,,0.02,pywws,2013-11-16 12:18:00,
2013-11-16 04:23:00,41.2,38.8,29.43,East,90,0.7,2.2,91,0.00,,,0.02,pywws,2013-11-16 12:23:00,
2013-11-16 04:28:00,41.2,38.8,29.43,North,-999,0.0,1.6,91,0.00,,,0.02,pywws,2013-11-16 12:28:00,
2013-11-16 04:33:00,41.2,38.8,29.43,East,90,1.6,3.1,91,0.00,,,0.02,pywws,2013-11-16 12:33:00,
2013-11-16 04:38:00,41.2,38.8,29.44,East,90,1.6,2.2,91,0.00,,,0.02,pywws,2013-11-16 12:38:00,
2013-11-16 04:43:00,41.2,38.8,29.44,East,90,1.6,3.1,91,0.00,,,0.02,pywws,2013-11-16 12:43:00,
2013-11-16 04:48:00,41.2,38.5,29.44,East,90,0.7,2.2,90,0.00,,,0.02,pywws,2013-11-16 12:48:00,
2013-11-16 05:03:00,41.0,38.3,29.44,East,90,1.6,3.1,90,0.00,,,0.02,pywws,2013-11-16 13:03:00,
2013-11-16 05:08:00,40.8,38.1,29.45,East,90,1.6,2.2,90,0.00,,,0.02,pywws,2013-11-16 13:08:00,
2013-11-16 05:13:00,41.0,38.0,29.45,East,90,0.7,1.6,89,0.00,,,0.02,pywws,2013-11-16 13:13:00,
2013-11-16 05:18:00,41.2,38.2,29.45,East,90,1.6,3.1,89,0.00,,,0.02,pywws,2013-11-16 13:18:00,
2013-11-16 05:23:00,41.2,38.2,29.46,East,90,1.6,3.1,89,0.00,,,0.02,pywws,2013-11-16 13:23:00,
2013-11-16 05:28:00,41.4,38.4,29.46,East,90,0.7,2.2,89,0.00,,,0.02,pywws,2013-11-16 13:28:00,
2013-11-16 05:33:00,41.2,38.2,29.46,East,90,0.7,2.2,89,0.00,,,0.02,pywws,2013-11-16 13:33:00,
2013-11-16 05:38:00,41.4,38.1,29.46,West,270,3.8,9.2,88,0.00,,,0.02,pywws,2013-11-16 13:38:00,
2013-11-16 05:43:00,41.7,38.1,29.47,West,270,0.7,2.2,87,0.00,,,0.02,pywws,2013-11-16 13:43:00,
2013-11-16 05:48:00,41.7,38.1,29.47,North,-999,0.0,0.0,87,0.00,,,0.02,pywws,2013-11-16 13:48:00,
2013-11-16 06:03:00,41.5,38.0,29.47,West,270,1.6,3.1,87,0.00,,,0.02,pywws,2013-11-16 14:03:00,
2013-11-16 06:08:00,41.4,37.5,29.47,West,270,0.7,1.6,86,0.00,,,0.02,pywws,2013-11-16 14:08:00,
2013-11-16 06:13:00,41.2,37.3,29.47,North,-999,0.0,2.2,86,0.00,,,0.02,pywws,2013-11-16 14:13:00,
2013-11-16 06:18:00,41.4,37.5,29.47,West,270,0.7,2.2,86,0.00,,,0.02,pywws,2013-11-16 14:18:00,
2013-11-16 06:23:00,41.2,37.3,29.48,North,-999,0.0,0.7,86,0.00,,,0.02,pywws,2013-11-16 14:23:00,
2013-11-16 06:28:00,41.2,37.3,29.48,West,270,0.7,2.2,86,0.00,,,0.02,pywws,2013-11-16 14:28:00,
2013-11-16 06:33:00,41.0,37.1,29.48,West,270,1.6,2.2,86,0.00,,,0.02,pywws,2013-11-16 14:33:00,
2013-11-16 06:38:00,41.2,37.3,29.48,SW,225,1.6,3.1,86,0.00,,,0.02,pywws,2013-11-16 14:38:00,
2013-11-16 06:43:00,41.0,37.1,29.48,North,-999,0.0,0.0,86,0.00,,,0.02,pywws,2013-11-16 14:43:00,
2013-11-16 06:48:00,41.0,37.1,29.49,North,-999,0.0,0.0,86,0.00,,,0.02,pywws,2013-11-16 14:48:00,
2013-11-16 07:03:00,40.8,37.3,29.49,SW,225,1.6,2.2,87,0.00,,,0.02,pywws,2013-11-16 15:03:00,
2013-11-16 07:08:00,41.0,37.1,29.49,SW,225,0.7,1.6,86,0.00,,,0.02,pywws,2013-11-16 15:08:00,
2013-11-16 07:13:00,41.0,37.1,29.50,East,90,1.6,2.2,86,0.00,,,0.02,pywws,2013-11-16 15:13:00,
2013-11-16 07:18:00,41.4,37.5,29.50,North,-999,0.0,0.0,86,0.00,,,0.02,pywws,2013-11-16 15:18:00,
2013-11-16 07:23:00,41.5,37.4,29.50,North,0,1.6,3.1,85,0.00,,,0.02,pywws,2013-11-16 15:23:00,
2013-11-16 07:28:00,41.5,37.1,29.50,North,-999,0.0,1.6,84,0.00,,,0.02,pywws,2013-11-16 15:28:00,
2013-11-16 07:33:00,41.2,36.7,29.50,North,0,0.7,2.2,84,0.00,,,0.02,pywws,2013-11-16 15:33:00,
2013-11-16 07:38:00,41.4,36.9,29.51,North,0,1.6,2.2,84,0.00,,,0.02,pywws,2013-11-16 15:38:00,
2013-11-16 07:43:00,41.4,36.9,29.51,North,-999,0.0,0.0,84,0.00,,,0.02,pywws,2013-11-16 15:43:00,
2013-11-16 07:48:00,41.2,36.7,29.51,North,-999,0.0,0.0,84,0.00,,,0.02,pywws,2013-11-16 15:48:00,
2013-11-16 08:03:00,41.2,36.7,29.51,North,0,1.6,3.1,84,0.00,,,0.02,pywws,2013-11-16 16:03:00,
2013-11-16 08:08:00,41.9,36.8,29.52,NW,315,2.2,3.8,82,0.00,,,0.02,pywws,2013-11-16 16:08:00,
2013-11-16 08:13:00,41.7,36.9,29.52,North,-999,0.0,0.0,83,0.00,,,0.02,pywws,2013-11-16 16:13:00,
2013-11-16 08:18:00,41.9,37.1,29.53,North,-999,0.0,0.0,83,0.00,,,0.02,pywws,2013-11-16 16:18:00,
2013-11-16 08:23:00,41.9,37.1,29.53,NW,315,0.7,3.1,83,0.00,,,0.02,pywws,2013-11-16 16:23:00,
2013-11-16 08:28:00,42.1,37.3,29.54,North,-999,0.0,2.2,83,0.00,,,0.02,pywws,2013-11-16 16:28:00,
2013-11-16 08:33:00,42.1,37.0,29.53,West,270,1.6,2.2,82,0.00,,,0.02,pywws,2013-11-16 16:33:00,
2013-11-16 08:38:00,42.1,37.0,29.54,West,270,0.7,1.6,82,0.00,,,0.02,pywws,2013-11-16 16:38:00,
2013-11-16 08:43:00,42.1,37.3,29.54,North,-999,0.0,0.0,83,0.00,,,0.02,pywws,2013-11-16 16:43:00,
2013-11-16 08:48:00,42.1,37.3,29.54,North,-999,0.0,0.0,83,0.00,,,0.02,pywws,2013-11-16 16:48:00,
2013-11-16 09:03:00,41.9,37.4,29.54,North,-999,0.0,0.0,84,0.00,,,0.02,pywws,2013-11-16 17:03:00,
2013-11-16 09:08:00,42.3,37.8,29.54,North,-999,0.0,0.0,84,0.00,,,0.02,pywws,2013-11-16 17:08:00,
2013-11-16 09:13:00,42.4,37.6,29.54,North,-999,0.0,0.0,83,0.00,,,0.02,pywws,2013-11-16 17:13:00,
2013-11-16 09:18:00,42.8,36.7,29.55,North,-999,0.0,0.0,79,0.00,,,0.02,pywws,2013-11-16 17:18:00,
2013-11-16 09:23:00,42.6,37.2,29.54,North,-999,0.0,0.0,81,0.00,,,0.02,pywws,2013-11-16 17:23:00,
2013-11-16 09:28:00,42.8,37.4,29.54,North,-999,0.0,0.0,81,0.00,,,0.02,pywws,2013-11-16 17:28:00,
2013-11-16 09:33:00,43.0,37.2,29.55,North,-999,0.0,0.0,80,0.00,,,0.02,pywws,2013-11-16 17:33:00,
2013-11-16 09:38:00,43.2,37.1,29.55,North,0,0.7,1.6,79,0.00,,,0.02,pywws,2013-11-16 17:38:00,
2013-11-16 09:43:00,43.3,37.3,29.54,North,-999,0.0,0.0,79,0.00,,,0.02,pywws,2013-11-16 17:43:00,
2013-11-16 09:48:00,43.3,36.9,29.55,North,-999,0.0,0.0,78,0.00,,,0.02,pywws,2013-11-16 17:48:00,
2013-11-16 10:03:00,43.3,36.9,29.55,North,-999,0.0,0.0,78,0.00,,,0.02,pywws,2013-11-16 18:03:00,
2013-11-16 10:08:00,43.5,36.8,29.56,North,-999,0.0,0.7,77,0.00,,,0.02,pywws,2013-11-16 18:08:00,
2013-11-16 10:13:00,43.5,36.8,29.56,North,-999,0.0,0.0,77,0.00,,,0.02,pywws,2013-11-16 18:13:00,
2013-11-16 10:18:00,43.7,37.0,29.57,North,-999,0.0,3.1,77,0.00,,,0.02,pywws,2013-11-16 18:18:00,
2013-11-16 10:23:00,43.5,37.1,29.57,North,-999,0.0,0.0,78,0.00,,,0.02,pywws,2013-11-16 18:23:00,
2013-11-16 10:28:00,43.7,37.0,29.57,North,-999,0.0,1.6,77,0.00,,,0.02,pywws,2013-11-16 18:28:00,
2013-11-16 10:33:00,43.7,37.3,29.57,North,-999,0.0,0.7,78,0.00,,,0.02,pywws,2013-11-16 18:33:00,
2013-11-16 10:38:00,43.7,37.3,29.57,North,-999,0.0,0.0,78,0.00,,,0.02,pywws,2013-11-16 18:38:00,
2013-11-16 10:43:00,43.9,37.1,29.57,West,270,0.7,1.6,77,0.00,,,0.02,pywws,2013-11-16 18:43:00,
2013-11-16 10:48:00,43.9,36.8,29.57,North,-999,0.0,0.0,76,0.00,,,0.02,pywws,2013-11-16 18:48:00,
2013-11-16 11:03:00,43.9,37.1,29.57,West,270,1.6,4.5,77,0.00,,,0.02,pywws,2013-11-16 19:03:00,
2013-11-16 11:08:00,44.6,36.8,29.57,North,-999,0.0,0.0,74,0.00,,,0.02,pywws,2013-11-16 19:08:00,
2013-11-16 11:13:00,44.4,37.3,29.56,West,270,0.7,2.2,76,0.00,,,0.02,pywws,2013-11-16 19:13:00,
2013-11-16 11:18:00,44.6,36.8,29.57,North,-999,0.0,0.0,74,0.00,,,0.02,pywws,2013-11-16 19:18:00,
2013-11-16 11:23:00,44.8,37.0,29.56,North,-999,0.0,1.6,74,0.00,,,0.02,pywws,2013-11-16 19:23:00,
2013-11-16 11:28:00,45.0,37.5,29.56,West,270,2.2,4.5,75,0.00,,,0.02,pywws,2013-11-16 19:28:00,
2013-11-16 11:33:00,45.0,37.2,29.56,West,270,1.6,3.8,74,0.00,,,0.02,pywws,2013-11-16 19:33:00,
2013-11-16 11:38:00,44.8,37.0,29.56,SW,225,0.7,2.2,74,0.00,,,0.02,pywws,2013-11-16 19:38:00,
2013-11-16 11:43:00,44.8,37.3,29.56,North,-999,0.0,0.0,75,0.00,,,0.02,pywws,2013-11-16 19:43:00,
2013-11-16 11:48:00,44.8,37.0,29.57,North,-999,0.0,0.7,74,0.00,,,0.02,pywws,2013-11-16 19:48:00,
2013-11-16 12:03:00,44.6,36.8,29.57,West,270,3.1,5.4,74,0.00,,,0.02,pywws,2013-11-16 20:03:00,
2013-11-16 12:08:00,44.1,37.0,29.57,North,-999,0.0,0.0,76,0.00,,,0.02,pywws,2013-11-16 20:08:00,
2013-11-16 12:13:00,43.9,37.1,29.57,SW,225,1.6,3.1,77,0.00,,,0.02,pywws,2013-11-16 20:13:00,
2013-11-16 12:18:00,44.2,37.2,29.57,SW,225,0.7,3.1,76,0.00,,,0.02,pywws,2013-11-16 20:18:00,
2013-11-16 12:23:00,44.6,37.2,29.57,SW,225,0.7,1.6,75,0.00,,,0.02,pywws,2013-11-16 20:23:00,
2013-11-16 12:28:00,44.2,37.2,29.57,SW,225,0.7,2.2,76,0.00,,,0.02,pywws,2013-11-16 20:28:00,
2013-11-16 12:33:00,45.0,37.9,29.57,West,270,2.2,4.5,76,0.00,,,0.02,pywws,2013-11-16 20:33:00,
2013-11-16 12:38:00,45.3,37.5,29.57,North,-999,0.0,0.0,74,0.00,,,0.02,pywws,2013-11-16 20:38:00,
2013-11-16 12:43:00,44.8,36.7,29.57,North,-999,0.0,0.7,73,0.00,,,0.02,pywws,2013-11-16 20:43:00,
2013-11-16 12:48:00,44.8,36.7,29.57,West,270,1.6,3.8,73,0.00,,,0.02,pywws,2013-11-16 20:48:00,
2013-11-16 13:03:00,44.6,36.1,29.57,North,-999,0.0,0.7,72,0.00,,,0.02,pywws,2013-11-16 21:03:00,
2013-11-16 13:08:00,44.4,37.0,29.57,North,0,0.7,1.6,75,0.00,,,0.02,pywws,2013-11-16 21:08:00,
2013-11-16 13:13:00,44.6,36.5,29.57,North,0,0.7,2.2,73,0.00,,,0.02,pywws,2013-11-16 21:13:00,
2013-11-16 13:18:00,44.8,36.7,29.57,North,-999,0.0,0.0,73,0.00,,,0.02,pywws,2013-11-16 21:18:00,
2013-11-16 13:23:00,45.0,36.5,29.57,North,-999,0.0,1.6,72,0.00,,,0.02,pywws,2013-11-16 21:23:00,
2013-11-16 13:28:00,44.6,36.5,29.58,North,-999,0.0,0.0,73,0.00,,,0.02,pywws,2013-11-16 21:28:00,
2013-11-16 13:33:00,44.2,36.8,29.58,North,0,0.7,1.6,75,0.00,,,0.02,pywws,2013-11-16 21:33:00,
2013-11-16 13:38:00,44.4,37.0,29.58,North,-999,0.0,0.0,75,0.00,,,0.02,pywws,2013-11-16 21:38:00,
2013-11-16 13:43:00,44.2,37.2,29.58,North,-999,0.0,0.0,76,0.00,,,0.02,pywws,2013-11-16 21:43:00,
2013-11-16 13:48:00,44.1,37.3,29.58,North,0,2.2,3.8,77,0.00,,,0.02,pywws,2013-11-16 21:48:00,
2013-11-16 14:03:00,43.9,37.1,29.58,North,0,1.6,3.8,77,0.00,,,0.02,pywws,2013-11-16 22:03:00,
2013-11-16 14:08:00,43.7,37.0,29.58,North,-999,0.0,0.0,77,0.00,,,0.02,pywws,2013-11-16 22:08:00,
2013-11-16 14:13:00,43.9,37.1,29.58,North,-999,0.0,0.7,77,0.00,,,0.02,pywws,2013-11-16 22:13:00,
2013-11-16 14:18:00,44.1,37.3,29.58,North,-999,0.0,0.0,77,0.00,,,0.02,pywws,2013-11-16 22:18:00,
2013-11-16 14:23:00,44.1,37.0,29.59,North,-999,0.0,0.0,76,0.00,,,0.02,pywws,2013-11-16 22:23:00,
2013-11-16 14:28:00,43.7,36.6,29.59,North,0,2.2,4.5,76,0.00,,,0.02,pywws,2013-11-16 22:28:00,
2013-11-16 14:33:00,44.1,37.3,29.59,North,0,2.2,4.5,77,0.00,,,0.02,pywws,2013-11-16 22:33:00,
2013-11-16 14:38:00,44.2,36.8,29.59,North,-999,0.0,0.7,75,0.00,,,0.02,pywws,2013-11-16 22:38:00,
2013-11-16 14:43:00,44.2,36.8,29.59,North,-999,0.0,0.0,75,0.00,,,0.02,pywws,2013-11-16 22:43:00,
2013-11-16 14:48:00,44.2,37.2,29.59,North,0,1.6,3.1,76,0.00,,,0.02,pywws,2013-11-16 22:48:00,
2013-11-16 15:03:00,44.1,37.0,29.59,North,0,1.6,2.2,76,0.00,,,0.02,pywws,2013-11-16 23:03:00,
2013-11-16 15:08:00,43.9,37.1,29.59,North,-999,0.0,0.0,77,0.00,,,0.02,pywws,2013-11-16 23:08:00,
2013-11-16 15:13:00,44.2,37.2,29.60,North,-999,0.0,1.6,76,0.00,,,0.02,pywws,2013-11-16 23:13:00,
2013-11-16 15:18:00,44.2,37.2,29.60,North,0,0.7,2.2,76,0.00,,,0.02,pywws,2013-11-16 23:18:00,
2013-11-16 15:23:00,44.4,36.7,29.60,North,0,0.7,1.6,74,0.00,,,0.02,pywws,2013-11-16 23:23:00,
2013-11-16 15:28:00,44.4,37.0,29.60,North,-999,0.0,1.6,75,0.00,,,0.02,pywws,2013-11-16 23:28:00,
2013-11-16 15:33:00,44.4,37.0,29.61,North,-999,0.0,1.6,75,0.00,,,0.02,pywws,2013-11-16 23:33:00,
2013-11-16 15:38:00,44.2,36.8,29.61,North,0,1.6,3.1,75,0.00,,,0.02,pywws,2013-11-16 23:38:00,
2013-11-16 15:43:00,44.2,37.2,29.61,North,0,3.1,5.4,76,0.00,,,0.02,pywws,2013-11-16 23:43:00,
2013-11-16 15:48:00,44.2,36.8,29.61,North,0,3.8,6.9,75,0.00,,,0.02,pywws,2013-11-16 23:48:00,
2013-11-16 16:03:00,44.6,36.1,29.61,North,0,2.2,4.5,72,0.00,,,0.02,pywws,2013-11-17 00:03:00,
2013-11-16 16:08:00,44.4,36.7,29.62,North,0,2.2,3.1,74,0.00,,,0.02,pywws,2013-11-17 00:08:00,
2013-11-16 16:13:00,44.1,36.7,29.62,North,-999,0.0,1.6,75,0.00,,,0.02,pywws,2013-11-17 00:13:00,
2013-11-16 16:18:00,43.9,36.8,29.62,North,0,2.2,3.1,76,0.00,,,0.02,pywws,2013-11-17 00:18:00,
2013-11-16 16:23:00,44.4,36.7,29.62,North,0,1.6,3.1,74,0.00,,,0.02,pywws,2013-11-17 00:23:00,
2013-11-16 16:28:00,44.2,36.5,29.62,North,-999,0.0,0.7,74,0.00,,,0.02,pywws,2013-11-17 00:28:00,
2013-11-16 16:33:00,43.7,36.6,29.62,North,0,1.6,3.1,76,0.00,,,0.02,pywws,2013-11-17 00:33:00,
2013-11-16 16:38:00,44.1,36.7,29.63,North,0,2.2,3.1,75,0.00,,,0.02,pywws,2013-11-17 00:38:00,
2013-11-16 16:43:00,44.1,36.7,29.63,North,-999,0.0,1.6,75,0.00,,,0.02,pywws,2013-11-17 00:43:00,
2013-11-16 16:48:00,44.4,36.7,29.62,NW,315,0.7,1.6,74,0.00,,,0.02,pywws,2013-11-17 00:48:00,
2013-11-16 17:03:00,43.9,36.5,29.63,NW,315,1.6,3.8,75,0.00,,,0.02,pywws,2013-11-17 01:03:00,
2013-11-16 17:08:00,43.3,36.6,29.63,North,-999,0.0,1.6,77,0.00,,,0.02,pywws,2013-11-17 01:08:00,
2013-11-16 17:13:00,43.7,36.6,29.62,North,0,0.7,1.6,76,0.00,,,0.02,pywws,2013-11-17 01:13:00,
2013-11-16 17:18:00,43.5,36.8,29.63,North,0,0.7,2.2,77,0.00,,,0.02,pywws,2013-11-17 01:18:00,
2013-11-16 17:23:00,43.9,36.8,29.63,NW,315,2.2,3.8,76,0.00,,,0.02,pywws,2013-11-17 01:23:00,
2013-11-16 17:28:00,43.7,36.6,29.63,North,0,0.7,3.1,76,0.00,,,0.02,pywws,2013-11-17 01:28:00,
2013-11-16 17:33:00,44.2,36.8,29.63,NW,315,0.7,1.6,75,0.00,,,0.02,pywws,2013-11-17 01:33:00,
2013-11-16 17:38:00,43.9,36.5,29.63,NW,315,2.2,3.1,75,0.00,,,0.02,pywws,2013-11-17 01:38:00,
2013-11-16 17:43:00,44.1,36.3,29.64,West,270,2.2,3.8,74,0.00,,,0.02,pywws,2013-11-17 01:43:00,
2013-11-16 17:48:00,44.2,36.8,29.64,West,270,2.2,3.8,75,0.00,,,0.02,pywws,2013-11-17 01:48:00,
2013-11-16 18:03:00,43.7,36.6,29.64,West,270,2.2,4.5,76,0.00,,,0.02,pywws,2013-11-17 02:03:00,
2013-11-16 18:08:00,43.9,37.1,29.64,West,270,0.7,2.2,77,0.00,,,0.02,pywws,2013-11-17 02:08:00,
2013-11-16 18:13:00,43.9,36.8,29.65,West,270,0.7,2.2,76,0.00,,,0.02,pywws,2013-11-17 02:13:00,
2013-11-16 18:18:00,43.9,36.8,29.65,North,-999,0.0,0.0,76,0.00,,,0.02,pywws,2013-11-17 02:18:00,
2013-11-16 18:23:00,43.9,36.5,29.65,South,180,1.6,3.1,75,0.00,,,0.02,pywws,2013-11-17 02:23:00,
2013-11-16 18:28:00,43.7,36.6,29.65,North,-999,0.0,0.0,76,0.00,,,0.02,pywws,2013-11-17 02:28:00,
2013-11-16 18:33:00,43.9,36.8,29.65,North,0,1.6,3.1,76,0.00,,,0.02,pywws,2013-11-17 02:33:00,
2013-11-16 18:38:00,43.5,36.8,29.65,North,-999,0.0,0.0,77,0.00,,,0.02,pywws,2013-11-17 02:38:00,
2013-11-16 18:43:00,43.7,36.6,29.65,North,0,0.7,2.2,76,0.00,,,0.02,pywws,2013-11-17 02:43:00,
2013-11-16 18:48:00,43.7,36.6,29.66,North,0,1.6,3.1,76,0.00,,,0.02,pywws,2013-11-17 02:48:00,
2013-11-16 19:03:00,43.5,36.5,29.66,North,0,2.2,5.4,76,0.00,,,0.02,pywws,2013-11-17 03:03:00,
2013-11-16 19:08:00,43.5,36.5,29.67,North,-999,0.0,0.0,76,0.00,,,0.02,pywws,2013-11-17 03:08:00,
2013-11-16 19:13:00,43.5,36.5,29.67,North,0,1.6,3.1,76,0.00,,,0.02,pywws,2013-11-17 03:13:00,
2013-11-16 19:18:00,43.9,36.5,29.67,North,0,1.6,6.9,75,0.00,,,0.02,pywws,2013-11-17 03:18:00,
2013-11-16 19:23:00,43.9,36.5,29.67,North,0,0.7,3.1,75,0.00,,,0.02,pywws,2013-11-17 03:23:00,
2013-11-16 19:28:00,43.9,36.1,29.67,West,270,1.6,3.1,74,0.00,,,0.02,pywws,2013-11-17 03:28:00,
2013-11-16 19:33:00,43.7,36.0,29.68,North,-999,0.0,0.0,74,0.00,,,0.02,pywws,2013-11-17 03:33:00,
2013-11-16 19:38:00,43.5,36.1,29.67,West,270,0.7,2.2,75,0.00,,,0.02,pywws,2013-11-17 03:38:00,
2013-11-16 19:43:00,43.9,36.5,29.68,West,270,0.7,1.6,75,0.00,,,0.02,pywws,2013-11-17 03:43:00,
2013-11-16 19:48:00,43.7,36.3,29.68,West,270,0.7,2.2,75,0.00,,,0.02,pywws,2013-11-17 03:48:00,
2013-11-16 20:03:00,43.7,36.0,29.69,North,-999,0.0,1.6,74,0.00,,,0.02,pywws,2013-11-17 04:03:00,
2013-11-16 20:08:00,43.5,35.8,29.69,North,-999,0.0,0.7,74,0.00,,,0.02,pywws,2013-11-17 04:08:00,
2013-11-16 20:13:00,43.5,35.8,29.69,South,180,0.7,1.6,74,0.00,,,0.02,pywws,2013-11-17 04:13:00,
2013-11-16 20:18:00,43.5,36.1,29.70,South,180,0.7,3.1,75,0.00,,,0.02,pywws,2013-11-17 04:18:00,
2013-11-16 20:23:00,43.3,36.0,29.70,North,-999,0.0,0.0,75,0.00,,,0.02,pywws,2013-11-17 04:23:00,
2013-11-16 20:28:00,43.5,36.1,29.70,North,-999,0.0,1.6,75,0.00,,,0.02,pywws,2013-11-17 04:28:00,
2013-11-16 20:33:00,43.3,36.0,29.71,South,180,2.2,4.5,75,0.00,,,0.02,pywws,2013-11-17 04:33:00,
2013-11-16 20:38:00,43.5,36.1,29.71,South,180,2.2,3.8,75,0.00,,,0.02,pywws,2013-11-17 04:38:00,
2013-11-16 20:43:00,43.5,35.8,29.71,North,-999,0.0,1.6,74,0.00,,,0.02,pywws,2013-11-17 04:43:00,
2013-11-16 20:48:00,43.5,35.8,29.72,South,180,2.2,3.1,74,0.00,,,0.02,pywws,2013-11-17 04:48:00,
2013-11-16 21:03:00,43.3,36.0,29.72,South,180,1.6,3.1,75,0.00,,,0.02,pywws,2013-11-17 05:03:00,
2013-11-16 21:08:00,43.3,36.0,29.72,South,180,1.6,4.5,75,0.00,,,0.02,pywws,2013-11-17 05:08:00,
2013-11-16 21:13:00,43.5,36.1,29.72,South,180,0.7,3.1,75,0.00,,,0.02,pywws,2013-11-17 05:13:00,
2013-11-16 21:18:00,43.5,36.1,29.72,South,180,0.7,2.2,75,0.00,,,0.02,pywws,2013-11-17 05:18:00,
2013-11-16 21:23:00,43.3,36.0,29.72,SW,225,1.6,3.1,75,0.00,,,0.02,pywws,2013-11-17 05:23:00,
2013-11-16 21:28:00,43.3,35.6,29.72,SW,225,1.6,4.5,74,0.00,,,0.02,pywws,2013-11-17 05:28:00,
2013-11-16 21:33:00,43.3,35.6,29.72,North,0,0.7,2.2,74,0.00,,,0.02,pywws,2013-11-17 05:33:00,
2013-11-16 21:38:00,43.2,35.8,29.72,North,-999,0.0,0.0,75,0.00,,,0.02,pywws,2013-11-17 05:38:00,
2013-11-16 21:43:00,43.2,35.8,29.73,North,0,0.7,2.2,75,0.00,,,0.02,pywws,2013-11-17 05:43:00,
2013-11-16 21:48:00,43.0,35.6,29.73,North,0,2.2,3.1,75,0.00,,,0.02,pywws,2013-11-17 05:48:00,
2013-11-16 22:03:00,43.2,35.8,29.73,North,-999,0.0,0.7,75,0.00,,,0.02,pywws,2013-11-17 06:03:00,
2013-11-16 22:08:00,43.0,35.9,29.74,North,0,0.7,1.6,76,0.00,,,0.02,pywws,2013-11-17 06:08:00,
2013-11-16 22:13:00,43.3,36.0,29.74,North,0,1.6,2.2,75,0.00,,,0.02,pywws,2013-11-17 06:13:00,
2013-11-16 22:18:00,43.2,35.4,29.73,North,0,1.6,2.2,74,0.00,,,0.02,pywws,2013-11-17 06:18:00,
2013-11-16 22:23:00,43.0,35.6,29.74,North,0,1.6,3.1,75,0.00,,,0.02,pywws,2013-11-17 06:23:00,
2013-11-16 22:28:00,42.6,35.6,29.73,North,0,1.6,2.2,76,0.00,,,0.02,pywws,2013-11-17 06:28:00,
2013-11-16 22:33:00,42.4,35.7,29.74,North,-999,0.0,0.7,77,0.00,,,0.02,pywws,2013-11-17 06:33:00,
2013-11-16 22:38:00,42.8,35.8,29.74,North,0,0.7,1.6,76,0.00,,,0.02,pywws,2013-11-17 06:38:00,
2013-11-16 22:43:00,42.8,35.4,29.73,North,0,1.6,2.2,75,0.00,,,0.02,pywws,2013-11-17 06:43:00,
2013-11-16 22:48:00,43.0,35.6,29.74,North,0,2.2,3.8,75,0.00,,,0.02,pywws,2013-11-17 06:48:00,
2013-11-16 23:03:00,43.3,35.3,29.74,North,0,2.2,4.5,73,0.00,,,0.02,pywws,2013-11-17 07:03:00,
2013-11-16 23:08:00,42.8,35.4,29.74,North,0,0.7,1.6,75,0.00,,,0.02,pywws,2013-11-17 07:08:00,
2013-11-16 23:13:00,43.0,35.9,29.75,North,-999,0.0,0.0,76,0.00,,,0.02,pywws,2013-11-17 07:13:00,
2013-11-16 23:18:00,43.3,35.6,29.75,North,0,1.6,3.8,74,0.00,,,0.02,pywws,2013-11-17 07:18:00,
2013-11-16 23:23:00,43.5,35.4,29.75,North,0,2.2,3.1,73,0.00,,,0.02,pywws,2013-11-17 07:23:00,
2013-11-16 23:28:00,43.5,35.4,29.75,NW,315,6.0,9.8,73,0.00,,,0.02,pywws,2013-11-17 07:28:00,
2013-11-16 23:33:00,43.3,35.6,29.75,NW,315,0.7,2.2,74,0.00,,,0.02,pywws,2013-11-17 07:33:00,
2013-11-16 23:38:00,43.3,35.6,29.75,NW,315,1.6,3.1,74,0.00,,,0.02,pywws,2013-11-17 07:38:00,
2013-11-16 23:43:00,43.5,35.8,29.76,North,-999,0.0,0.7,74,0.00,,,0.02,pywws,2013-11-17 07:43:00,
2013-11-16 23:48:00,43.5,35.8,29.76,NW,315,1.6,3.1,74,0.00,,,0.02,pywws,2013-11-17 07:48:00,